sensor_id;sensor_type;location;lat;lon;timestamp;temperature;humidity
17994;DHT22;9122;48.406;9.984;2023-06-10T00:01:39;21.40;64.20
17994;DHT22;9122;48.406;9.984;2023-06-10T00:04:24;21.40;64.40
17994;DHT22;9122;48.406;9.984;2023-06-10T00:07:09;21.30;64.50
17994;DHT22;9122;48.406;9.984;2023-06-10T00:09:54;21.30;64.70
17994;DHT22;9122;48.406;9.984;2023-06-10T00:12:39;21.30;64.90
17994;DHT22;9122;48.406;9.984;2023-06-10T00:15:24;21.20;64.90
17994;DHT22;9122;48.406;9.984;2023-06-10T00:18:08;21.20;65.00
17994;DHT22;9122;48.406;9.984;2023-06-10T00:20:54;21.20;65.20
17994;DHT22;9122;48.406;9.984;2023-06-10T00:23:39;21.20;65.30
17994;DHT22;9122;48.406;9.984;2023-06-10T00:26:23;21.10;65.50
17994;DHT22;9122;48.406;9.984;2023-06-10T00:29:08;21.10;65.70
17994;DHT22;9122;48.406;9.984;2023-06-10T00:31:53;21.10;65.80
17994;DHT22;9122;48.406;9.984;2023-06-10T00:34:41;21.00;66.00
17994;DHT22;9122;48.406;9.984;2023-06-10T00:37:25;21.00;66.10
17994;DHT22;9122;48.406;9.984;2023-06-10T00:40:10;21.00;66.20
17994;DHT22;9122;48.406;9.984;2023-06-10T00:42:55;21.00;66.20
17994;DHT22;9122;48.406;9.984;2023-06-10T00:45:39;20.90;66.30
17994;DHT22;9122;48.406;9.984;2023-06-10T00:48:23;20.90;66.40
17994;DHT22;9122;48.406;9.984;2023-06-10T00:51:09;20.90;66.60
17994;DHT22;9122;48.406;9.984;2023-06-10T00:53:54;20.90;66.80
17994;DHT22;9122;48.406;9.984;2023-06-10T00:56:39;20.90;67.00
17994;DHT22;9122;48.406;9.984;2023-06-10T00:59:23;20.80;67.00
17994;DHT22;9122;48.406;9.984;2023-06-10T01:02:09;20.80;67.20
17994;DHT22;9122;48.406;9.984;2023-06-10T01:04:53;20.80;67.40
17994;DHT22;9122;48.406;9.984;2023-06-10T01:10:53;20.70;67.60
17994;DHT22;9122;48.406;9.984;2023-06-10T01:13:41;20.60;67.90
17994;DHT22;9122;48.406;9.984;2023-06-10T01:16:26;20.60;68.10
17994;DHT22;9122;48.406;9.984;2023-06-10T01:19:11;20.60;68.30
17994;DHT22;9122;48.406;9.984;2023-06-10T01:21:57;20.60;68.50
17994;DHT22;9122;48.406;9.984;2023-06-10T01:24:44;20.50;68.60
17994;DHT22;9122;48.406;9.984;2023-06-10T01:27:32;20.50;68.80
17994;DHT22;9122;48.406;9.984;2023-06-10T01:30:19;20.50;69.10
17994;DHT22;9122;48.406;9.984;2023-06-10T01:33:09;20.50;69.40
17994;DHT22;9122;48.406;9.984;2023-06-10T01:35:57;20.40;69.50
17994;DHT22;9122;48.406;9.984;2023-06-10T01:38:44;20.40;69.80
17994;DHT22;9122;48.406;9.984;2023-06-10T01:41:28;20.40;70.00
17994;DHT22;9122;48.406;9.984;2023-06-10T01:44:18;20.40;70.20
17994;DHT22;9122;48.406;9.984;2023-06-10T01:47:03;20.40;70.40
17994;DHT22;9122;48.406;9.984;2023-06-10T01:49:47;20.30;70.60
17994;DHT22;9122;48.406;9.984;2023-06-10T01:52:32;20.30;70.90
17994;DHT22;9122;48.406;9.984;2023-06-10T01:55:16;20.20;71.10
17994;DHT22;9122;48.406;9.984;2023-06-10T01:58:01;20.20;71.40
17994;DHT22;9122;48.406;9.984;2023-06-10T02:00:45;20.20;71.70
17994;DHT22;9122;48.406;9.984;2023-06-10T02:03:29;20.10;71.80
17994;DHT22;9122;48.406;9.984;2023-06-10T02:06:14;20.10;72.10
17994;DHT22;9122;48.406;9.984;2023-06-10T02:08:59;20.10;72.40
17994;DHT22;9122;48.406;9.984;2023-06-10T02:11:43;20.10;72.60
17994;DHT22;9122;48.406;9.984;2023-06-10T02:14:28;20.00;72.80
17994;DHT22;9122;48.406;9.984;2023-06-10T02:17:12;20.00;72.90
17994;DHT22;9122;48.406;9.984;2023-06-10T02:19:58;20.00;73.10
17994;DHT22;9122;48.406;9.984;2023-06-10T02:22:44;20.00;73.30
17994;DHT22;9122;48.406;9.984;2023-06-10T02:25:28;20.00;74.30
17994;DHT22;9122;48.406;9.984;2023-06-10T02:28:13;20.00;73.70
17994;DHT22;9122;48.406;9.984;2023-06-10T02:30:57;19.90;73.90
17994;DHT22;9122;48.406;9.984;2023-06-10T02:33:43;19.90;74.20
17994;DHT22;9122;48.406;9.984;2023-06-10T02:36:28;19.90;74.40
17994;DHT22;9122;48.406;9.984;2023-06-10T02:39:12;19.90;74.50
17994;DHT22;9122;48.406;9.984;2023-06-10T02:41:57;19.80;75.40
17994;DHT22;9122;48.406;9.984;2023-06-10T02:44:41;19.80;74.90
17994;DHT22;9122;48.406;9.984;2023-06-10T02:47:26;19.80;75.00
17994;DHT22;9122;48.406;9.984;2023-06-10T02:50:11;19.80;75.10
17994;DHT22;9122;48.406;9.984;2023-06-10T02:52:56;19.80;75.30
17994;DHT22;9122;48.406;9.984;2023-06-10T02:55:40;19.80;75.40
17994;DHT22;9122;48.406;9.984;2023-06-10T02:58:26;19.70;75.50
17994;DHT22;9122;48.406;9.984;2023-06-10T03:01:12;19.70;75.70
17994;DHT22;9122;48.406;9.984;2023-06-10T03:03:56;19.70;75.90
17994;DHT22;9122;48.406;9.984;2023-06-10T03:06:40;19.60;76.10
17994;DHT22;9122;48.406;9.984;2023-06-10T03:09:25;19.60;76.20
17994;DHT22;9122;48.406;9.984;2023-06-10T03:12:09;19.60;76.40
17994;DHT22;9122;48.406;9.984;2023-06-10T03:14:54;19.60;76.50
17994;DHT22;9122;48.406;9.984;2023-06-10T03:17:39;19.60;76.70
17994;DHT22;9122;48.406;9.984;2023-06-10T03:20:24;19.50;76.80
17994;DHT22;9122;48.406;9.984;2023-06-10T03:23:09;19.50;77.10
17994;DHT22;9122;48.406;9.984;2023-06-10T03:25:54;19.50;77.30
17994;DHT22;9122;48.406;9.984;2023-06-10T03:28:39;19.40;77.50
17994;DHT22;9122;48.406;9.984;2023-06-10T03:31:24;19.40;77.70
17994;DHT22;9122;48.406;9.984;2023-06-10T03:34:08;19.40;77.90
17994;DHT22;9122;48.406;9.984;2023-06-10T03:36:53;19.40;78.10
17994;DHT22;9122;48.406;9.984;2023-06-10T03:39:37;19.40;78.30
17994;DHT22;9122;48.406;9.984;2023-06-10T03:42:22;19.40;78.50
17994;DHT22;9122;48.406;9.984;2023-06-10T03:45:07;19.40;78.60
17994;DHT22;9122;48.406;9.984;2023-06-10T03:47:53;19.30;78.70
17994;DHT22;9122;48.406;9.984;2023-06-10T03:50:37;19.30;78.80
17994;DHT22;9122;48.406;9.984;2023-06-10T03:53:21;19.30;78.90
17994;DHT22;9122;48.406;9.984;2023-06-10T03:56:08;19.30;79.00
17994;DHT22;9122;48.406;9.984;2023-06-10T03:58:53;19.20;79.00
17994;DHT22;9122;48.406;9.984;2023-06-10T04:01:37;19.20;79.20
17994;DHT22;9122;48.406;9.984;2023-06-10T04:04:25;19.20;79.20
17994;DHT22;9122;48.406;9.984;2023-06-10T04:07:09;19.20;79.30
17994;DHT22;9122;48.406;9.984;2023-06-10T04:09:55;19.20;79.40
17994;DHT22;9122;48.406;9.984;2023-06-10T04:12:39;19.20;79.40
17994;DHT22;9122;48.406;9.984;2023-06-10T04:15:24;19.20;79.50
17994;DHT22;9122;48.406;9.984;2023-06-10T04:18:08;19.10;79.60
17994;DHT22;9122;48.406;9.984;2023-06-10T04:20:53;19.10;79.70
17994;DHT22;9122;48.406;9.984;2023-06-10T04:23:37;19.10;79.90
17994;DHT22;9122;48.406;9.984;2023-06-10T04:26:22;19.10;80.10
17994;DHT22;9122;48.406;9.984;2023-06-10T04:29:07;19.10;80.30
17994;DHT22;9122;48.406;9.984;2023-06-10T04:31:51;19.10;80.40
17994;DHT22;9122;48.406;9.984;2023-06-10T04:34:36;19.10;80.60
17994;DHT22;9122;48.406;9.984;2023-06-10T04:37:24;19.10;80.80
17994;DHT22;9122;48.406;9.984;2023-06-10T04:40:09;19.10;81.00
17994;DHT22;9122;48.406;9.984;2023-06-10T04:42:53;19.10;81.20
17994;DHT22;9122;48.406;9.984;2023-06-10T04:45:37;19.10;81.40
17994;DHT22;9122;48.406;9.984;2023-06-10T04:48:21;19.10;81.60
17994;DHT22;9122;48.406;9.984;2023-06-10T04:51:08;19.10;81.80
17994;DHT22;9122;48.406;9.984;2023-06-10T04:53:52;19.10;81.90
17994;DHT22;9122;48.406;9.984;2023-06-10T04:56:36;19.20;82.20
17994;DHT22;9122;48.406;9.984;2023-06-10T04:59:21;19.20;82.30
17994;DHT22;9122;48.406;9.984;2023-06-10T05:02:05;19.20;82.40
17994;DHT22;9122;48.406;9.984;2023-06-10T05:04:49;19.20;82.40
17994;DHT22;9122;48.406;9.984;2023-06-10T05:07:34;19.20;82.60
17994;DHT22;9122;48.406;9.984;2023-06-10T05:10:19;19.20;82.70
17994;DHT22;9122;48.406;9.984;2023-06-10T05:13:03;19.20;82.80
17994;DHT22;9122;48.406;9.984;2023-06-10T05:15:48;19.30;82.80
17994;DHT22;9122;48.406;9.984;2023-06-10T05:18:32;19.30;82.80
17994;DHT22;9122;48.406;9.984;2023-06-10T05:21:17;19.30;82.80
17994;DHT22;9122;48.406;9.984;2023-06-10T05:24:01;19.40;83.00
17994;DHT22;9122;48.406;9.984;2023-06-10T05:26:46;19.40;83.00
17994;DHT22;9122;48.406;9.984;2023-06-10T05:29:33;19.40;83.10
17994;DHT22;9122;48.406;9.984;2023-06-10T05:32:17;19.40;82.80
17994;DHT22;9122;48.406;9.984;2023-06-10T05:35:02;19.50;82.90
17994;DHT22;9122;48.406;9.984;2023-06-10T05:37:48;19.50;82.90
17994;DHT22;9122;48.406;9.984;2023-06-10T05:40:32;19.50;82.90
17994;DHT22;9122;48.406;9.984;2023-06-10T05:43:17;19.60;83.00
17994;DHT22;9122;48.406;9.984;2023-06-10T05:46:02;19.60;82.90
17994;DHT22;9122;48.406;9.984;2023-06-10T05:48:46;19.70;82.90
17994;DHT22;9122;48.406;9.984;2023-06-10T05:51:30;19.70;82.90
17994;DHT22;9122;48.406;9.984;2023-06-10T05:54:15;19.70;82.80
17994;DHT22;9122;48.406;9.984;2023-06-10T05:56:59;19.80;82.60
17994;DHT22;9122;48.406;9.984;2023-06-10T05:59:44;19.90;82.80
17994;DHT22;9122;48.406;9.984;2023-06-10T06:02:28;19.90;82.80
17994;DHT22;9122;48.406;9.984;2023-06-10T06:05:13;20.00;82.50
17994;DHT22;9122;48.406;9.984;2023-06-10T06:07:57;20.00;82.40
17994;DHT22;9122;48.406;9.984;2023-06-10T06:10:42;20.10;82.30
17994;DHT22;9122;48.406;9.984;2023-06-10T06:13:26;20.20;82.30
17994;DHT22;9122;48.406;9.984;2023-06-10T06:16:10;20.20;82.20
17994;DHT22;9122;48.406;9.984;2023-06-10T06:18:55;20.30;82.00
17994;DHT22;9122;48.406;9.984;2023-06-10T06:21:39;20.30;82.00
17994;DHT22;9122;48.406;9.984;2023-06-10T06:24:24;20.40;81.90
17994;DHT22;9122;48.406;9.984;2023-06-10T06:27:09;20.50;81.90
17994;DHT22;9122;48.406;9.984;2023-06-10T06:29:54;20.60;81.80
17994;DHT22;9122;48.406;9.984;2023-06-10T06:32:41;20.60;81.70
17994;DHT22;9122;48.406;9.984;2023-06-10T06:35:25;20.70;81.40
17994;DHT22;9122;48.406;9.984;2023-06-10T06:38:09;20.80;81.30
17994;DHT22;9122;48.406;9.984;2023-06-10T06:40:54;20.90;80.90
17994;DHT22;9122;48.406;9.984;2023-06-10T06:43:38;20.90;80.90
17994;DHT22;9122;48.406;9.984;2023-06-10T06:46:22;21.00;80.70
17994;DHT22;9122;48.406;9.984;2023-06-10T06:49:07;21.10;80.50
17994;DHT22;9122;48.406;9.984;2023-06-10T06:51:51;21.20;80.40
17994;DHT22;9122;48.406;9.984;2023-06-10T06:54:35;21.20;80.40
17994;DHT22;9122;48.406;9.984;2023-06-10T06:57:20;21.30;79.80
17994;DHT22;9122;48.406;9.984;2023-06-10T07:00:05;21.40;79.70
17994;DHT22;9122;48.406;9.984;2023-06-10T07:02:50;21.50;79.60
17994;DHT22;9122;48.406;9.984;2023-06-10T07:05:34;21.50;80.00
17994;DHT22;9122;48.406;9.984;2023-06-10T07:08:18;21.60;79.50
17994;DHT22;9122;48.406;9.984;2023-06-10T07:11:03;21.70;79.40
17994;DHT22;9122;48.406;9.984;2023-06-10T07:13:48;21.70;79.00
17994;DHT22;9122;48.406;9.984;2023-06-10T07:16:32;21.90;79.00
17994;DHT22;9122;48.406;9.984;2023-06-10T07:19:16;21.90;78.60
17994;DHT22;9122;48.406;9.984;2023-06-10T07:22:01;22.00;78.30
17994;DHT22;9122;48.406;9.984;2023-06-10T07:24:46;22.10;78.00
17994;DHT22;9122;48.406;9.984;2023-06-10T07:27:30;22.20;77.60
17994;DHT22;9122;48.406;9.984;2023-06-10T07:30:15;22.30;77.30
17994;DHT22;9122;48.406;9.984;2023-06-10T07:32:59;22.30;76.90
17994;DHT22;9122;48.406;9.984;2023-06-10T07:35:44;22.40;76.60
17994;DHT22;9122;48.406;9.984;2023-06-10T07:38:29;22.50;76.50
17994;DHT22;9122;48.406;9.984;2023-06-10T07:41:14;22.60;76.60
17994;DHT22;9122;48.406;9.984;2023-06-10T07:44:02;22.70;76.10
17994;DHT22;9122;48.406;9.984;2023-06-10T07:46:46;22.70;75.40
17994;DHT22;9122;48.406;9.984;2023-06-10T07:49:30;22.80;75.10
17994;DHT22;9122;48.406;9.984;2023-06-10T07:52:15;22.90;74.90
17994;DHT22;9122;48.406;9.984;2023-06-10T07:55:00;22.90;74.70
17994;DHT22;9122;48.406;9.984;2023-06-10T07:57:45;23.00;73.50
17994;DHT22;9122;48.406;9.984;2023-06-10T08:00:30;23.10;73.70
17994;DHT22;9122;48.406;9.984;2023-06-10T08:03:14;23.10;73.60
17994;DHT22;9122;48.406;9.984;2023-06-10T08:05:59;23.20;73.60
17994;DHT22;9122;48.406;9.984;2023-06-10T08:08:44;23.30;73.50
17994;DHT22;9122;48.406;9.984;2023-06-10T08:11:32;23.40;73.10
17994;DHT22;9122;48.406;9.984;2023-06-10T08:14:17;23.40;73.30
17994;DHT22;9122;48.406;9.984;2023-06-10T08:17:01;23.50;72.50
17994;DHT22;9122;48.406;9.984;2023-06-10T08:19:46;23.60;71.60
17994;DHT22;9122;48.406;9.984;2023-06-10T08:22:31;23.60;71.60
17994;DHT22;9122;48.406;9.984;2023-06-10T08:25:16;23.70;71.50
17994;DHT22;9122;48.406;9.984;2023-06-10T08:28:00;23.80;71.20
17994;DHT22;9122;48.406;9.984;2023-06-10T08:30:45;23.90;71.30
17994;DHT22;9122;48.406;9.984;2023-06-10T08:33:30;23.90;70.50
17994;DHT22;9122;48.406;9.984;2023-06-10T08:36:14;24.00;69.90
17994;DHT22;9122;48.406;9.984;2023-06-10T08:38:59;24.00;69.80
17994;DHT22;9122;48.406;9.984;2023-06-10T08:44:54;24.20;70.30
17994;DHT22;9122;48.406;9.984;2023-06-10T08:47:45;24.30;69.50
17994;DHT22;9122;48.406;9.984;2023-06-10T08:50:31;24.40;69.10
17994;DHT22;9122;48.406;9.984;2023-06-10T08:53:18;24.50;68.90
17994;DHT22;9122;48.406;9.984;2023-06-10T08:56:04;24.50;67.80
17994;DHT22;9122;48.406;9.984;2023-06-10T08:58:49;24.60;67.40
17994;DHT22;9122;48.406;9.984;2023-06-10T09:01:34;24.70;66.80
17994;DHT22;9122;48.406;9.984;2023-06-10T09:04:19;24.70;66.50
17994;DHT22;9122;48.406;9.984;2023-06-10T09:07:04;24.80;66.40
17994;DHT22;9122;48.406;9.984;2023-06-10T09:09:49;24.80;65.60
17994;DHT22;9122;48.406;9.984;2023-06-10T09:12:34;25.00;65.70
17994;DHT22;9122;48.406;9.984;2023-06-10T09:15:19;25.00;65.50
17994;DHT22;9122;48.406;9.984;2023-06-10T09:18:04;25.00;65.30
17994;DHT22;9122;48.406;9.984;2023-06-10T09:20:49;25.10;65.80
17994;DHT22;9122;48.406;9.984;2023-06-10T09:23:34;25.10;65.60
17994;DHT22;9122;48.406;9.984;2023-06-10T09:26:19;25.20;64.90
17994;DHT22;9122;48.406;9.984;2023-06-10T09:29:06;25.30;64.50
17994;DHT22;9122;48.406;9.984;2023-06-10T09:31:52;25.40;63.40
17994;DHT22;9122;48.406;9.984;2023-06-10T09:34:37;25.40;63.70
17994;DHT22;9122;48.406;9.984;2023-06-10T09:37:23;25.50;63.70
17994;DHT22;9122;48.406;9.984;2023-06-10T09:40:08;25.50;63.90
17994;DHT22;9122;48.406;9.984;2023-06-10T09:42:59;25.60;64.00
17994;DHT22;9122;48.406;9.984;2023-06-10T09:45:44;25.70;63.80
17994;DHT22;9122;48.406;9.984;2023-06-10T09:48:34;25.70;62.80
17994;DHT22;9122;48.406;9.984;2023-06-10T09:51:19;25.80;62.80
17994;DHT22;9122;48.406;9.984;2023-06-10T09:54:03;25.80;62.30
17994;DHT22;9122;48.406;9.984;2023-06-10T09:56:50;25.90;61.80
17994;DHT22;9122;48.406;9.984;2023-06-10T09:59:37;25.80;61.70
17994;DHT22;9122;48.406;9.984;2023-06-10T10:02:22;25.90;62.70
17994;DHT22;9122;48.406;9.984;2023-06-10T10:05:06;25.90;62.10
17994;DHT22;9122;48.406;9.984;2023-06-10T10:07:51;26.00;61.30
17994;DHT22;9122;48.406;9.984;2023-06-10T10:10:36;26.00;60.80
17994;DHT22;9122;48.406;9.984;2023-06-10T10:13:21;26.10;59.10
17994;DHT22;9122;48.406;9.984;2023-06-10T10:16:16;26.10;58.90
17994;DHT22;9122;48.406;9.984;2023-06-10T10:19:28;26.20;58.40
17994;DHT22;9122;48.406;9.984;2023-06-10T10:22:26;26.20;57.40
17994;DHT22;9122;48.406;9.984;2023-06-10T10:25:13;26.30;57.50
17994;DHT22;9122;48.406;9.984;2023-06-10T10:28:09;26.30;57.60
17994;DHT22;9122;48.406;9.984;2023-06-10T10:30:58;26.30;58.00
17994;DHT22;9122;48.406;9.984;2023-06-10T10:34:06;26.40;57.70
17994;DHT22;9122;48.406;9.984;2023-06-10T10:36:51;26.40;58.20
17994;DHT22;9122;48.406;9.984;2023-06-10T10:39:36;26.40;58.40
17994;DHT22;9122;48.406;9.984;2023-06-10T10:42:20;26.50;58.60
17994;DHT22;9122;48.406;9.984;2023-06-10T10:45:06;26.50;58.30
17994;DHT22;9122;48.406;9.984;2023-06-10T10:47:52;26.50;57.80
17994;DHT22;9122;48.406;9.984;2023-06-10T10:50:38;26.60;57.20
17994;DHT22;9122;48.406;9.984;2023-06-10T10:53:22;26.70;56.80
17994;DHT22;9122;48.406;9.984;2023-06-10T10:56:16;26.70;56.20
17994;DHT22;9122;48.406;9.984;2023-06-10T10:59:04;26.80;55.90
17994;DHT22;9122;48.406;9.984;2023-06-10T11:01:49;26.80;55.40
17994;DHT22;9122;48.406;9.984;2023-06-10T11:04:35;26.90;55.40
17994;DHT22;9122;48.406;9.984;2023-06-10T11:07:20;26.90;55.80
17994;DHT22;9122;48.406;9.984;2023-06-10T11:10:10;26.90;55.50
17994;DHT22;9122;48.406;9.984;2023-06-10T11:12:55;27.00;55.40
17994;DHT22;9122;48.406;9.984;2023-06-10T11:15:45;27.00;55.40
17994;DHT22;9122;48.406;9.984;2023-06-10T11:18:39;27.00;54.70
17994;DHT22;9122;48.406;9.984;2023-06-10T11:21:24;27.00;54.80
17994;DHT22;9122;48.406;9.984;2023-06-10T11:24:13;27.00;55.10
17994;DHT22;9122;48.406;9.984;2023-06-10T11:27:19;27.00;55.30
17994;DHT22;9122;48.406;9.984;2023-06-10T11:32:51;27.00;54.10
17994;DHT22;9122;48.406;9.984;2023-06-10T11:35:36;27.10;54.50
17994;DHT22;9122;48.406;9.984;2023-06-10T11:38:21;27.10;54.90
17994;DHT22;9122;48.406;9.984;2023-06-10T11:41:07;27.20;55.30
17994;DHT22;9122;48.406;9.984;2023-06-10T11:43:52;27.20;54.80
17994;DHT22;9122;48.406;9.984;2023-06-10T11:46:38;27.20;54.90
17994;DHT22;9122;48.406;9.984;2023-06-10T11:49:22;27.30;55.00
17994;DHT22;9122;48.406;9.984;2023-06-10T11:52:08;27.30;54.60
17994;DHT22;9122;48.406;9.984;2023-06-10T11:54:56;27.30;54.20
17994;DHT22;9122;48.406;9.984;2023-06-10T11:57:40;27.20;54.50
17994;DHT22;9122;48.406;9.984;2023-06-10T12:00:25;27.20;55.00
17994;DHT22;9122;48.406;9.984;2023-06-10T12:03:09;27.20;55.30
17994;DHT22;9122;48.406;9.984;2023-06-10T12:06:02;27.20;55.60
17994;DHT22;9122;48.406;9.984;2023-06-10T12:08:46;27.30;55.80
17994;DHT22;9122;48.406;9.984;2023-06-10T12:11:31;27.30;55.30
17994;DHT22;9122;48.406;9.984;2023-06-10T12:14:15;27.30;55.10
17994;DHT22;9122;48.406;9.984;2023-06-10T12:17:01;27.30;55.30
17994;DHT22;9122;48.406;9.984;2023-06-10T12:19:47;27.30;55.50
17994;DHT22;9122;48.406;9.984;2023-06-10T12:22:42;27.20;55.60
17994;DHT22;9122;48.406;9.984;2023-06-10T12:25:28;27.20;55.50
17994;DHT22;9122;48.406;9.984;2023-06-10T12:28:13;27.20;54.90
17994;DHT22;9122;48.406;9.984;2023-06-10T12:31:07;27.30;54.90
17994;DHT22;9122;48.406;9.984;2023-06-10T12:34:07;27.30;55.20
17994;DHT22;9122;48.406;9.984;2023-06-10T12:36:52;27.30;55.30
17994;DHT22;9122;48.406;9.984;2023-06-10T12:39:37;27.30;54.90
17994;DHT22;9122;48.406;9.984;2023-06-10T12:42:22;27.30;55.10
17994;DHT22;9122;48.406;9.984;2023-06-10T12:45:08;27.30;55.40
17994;DHT22;9122;48.406;9.984;2023-06-10T12:48:04;27.30;55.70
17994;DHT22;9122;48.406;9.984;2023-06-10T12:50:55;27.30;55.40
17994;DHT22;9122;48.406;9.984;2023-06-10T12:53:39;27.20;54.90
17994;DHT22;9122;48.406;9.984;2023-06-10T12:56:24;27.20;55.70
17994;DHT22;9122;48.406;9.984;2023-06-10T12:59:16;27.20;56.00
17994;DHT22;9122;48.406;9.984;2023-06-10T13:02:00;27.20;56.10
17994;DHT22;9122;48.406;9.984;2023-06-10T13:04:45;27.20;56.40
17994;DHT22;9122;48.406;9.984;2023-06-10T13:07:30;27.10;56.20
17994;DHT22;9122;48.406;9.984;2023-06-10T13:10:15;27.10;55.90
17994;DHT22;9122;48.406;9.984;2023-06-10T13:13:00;27.10;55.90
17994;DHT22;9122;48.406;9.984;2023-06-10T13:15:45;27.10;56.20
17994;DHT22;9122;48.406;9.984;2023-06-10T13:18:30;27.10;56.20
17994;DHT22;9122;48.406;9.984;2023-06-10T13:21:21;27.00;56.00
17994;DHT22;9122;48.406;9.984;2023-06-10T13:24:05;27.10;55.90
17994;DHT22;9122;48.406;9.984;2023-06-10T13:26:50;27.00;55.70
17994;DHT22;9122;48.406;9.984;2023-06-10T13:29:34;27.10;55.90
17994;DHT22;9122;48.406;9.984;2023-06-10T13:32:19;27.00;55.50
17994;DHT22;9122;48.406;9.984;2023-06-10T13:35:04;27.00;55.50
17994;DHT22;9122;48.406;9.984;2023-06-10T13:37:49;27.00;55.50
17994;DHT22;9122;48.406;9.984;2023-06-10T13:40:33;26.90;56.20
17994;DHT22;9122;48.406;9.984;2023-06-10T13:43:18;26.90;56.00
17994;DHT22;9122;48.406;9.984;2023-06-10T13:46:03;26.90;55.80
17994;DHT22;9122;48.406;9.984;2023-06-10T13:48:47;26.90;55.10
17994;DHT22;9122;48.406;9.984;2023-06-10T13:51:32;26.90;54.70
17994;DHT22;9122;48.406;9.984;2023-06-10T13:54:17;26.90;54.50
17994;DHT22;9122;48.406;9.984;2023-06-10T13:57:02;26.90;55.00
17994;DHT22;9122;48.406;9.984;2023-06-10T13:59:47;26.90;54.90
17994;DHT22;9122;48.406;9.984;2023-06-10T14:02:31;26.90;55.30
17994;DHT22;9122;48.406;9.984;2023-06-10T14:05:16;26.90;54.90
17994;DHT22;9122;48.406;9.984;2023-06-10T14:08:00;26.90;55.20
17994;DHT22;9122;48.406;9.984;2023-06-10T14:10:44;26.80;55.10
17994;DHT22;9122;48.406;9.984;2023-06-10T14:13:29;26.80;55.60
17994;DHT22;9122;48.406;9.984;2023-06-10T14:16:13;26.80;55.50
17994;DHT22;9122;48.406;9.984;2023-06-10T14:18:58;26.80;55.10
17994;DHT22;9122;48.406;9.984;2023-06-10T14:21:43;26.80;55.20
17994;DHT22;9122;48.406;9.984;2023-06-10T14:24:28;26.70;55.30
17994;DHT22;9122;48.406;9.984;2023-06-10T14:27:12;26.70;55.30
17994;DHT22;9122;48.406;9.984;2023-06-10T14:30:04;26.70;55.80
17994;DHT22;9122;48.406;9.984;2023-06-10T14:32:49;26.70;55.90
17994;DHT22;9122;48.406;9.984;2023-06-10T14:35:34;26.70;56.00
17994;DHT22;9122;48.406;9.984;2023-06-10T14:38:18;26.70;56.20
17994;DHT22;9122;48.406;9.984;2023-06-10T14:41:03;26.70;56.00
17994;DHT22;9122;48.406;9.984;2023-06-10T14:43:47;26.70;55.10
17994;DHT22;9122;48.406;9.984;2023-06-10T14:46:31;26.70;54.70
17994;DHT22;9122;48.406;9.984;2023-06-10T14:49:16;26.70;55.00
17994;DHT22;9122;48.406;9.984;2023-06-10T14:52:01;26.60;55.30
17994;DHT22;9122;48.406;9.984;2023-06-10T14:54:45;26.60;55.60
17994;DHT22;9122;48.406;9.984;2023-06-10T14:57:30;26.60;56.20
17994;DHT22;9122;48.406;9.984;2023-06-10T15:00:15;26.50;56.70
17994;DHT22;9122;48.406;9.984;2023-06-10T15:03:03;26.50;56.60
17994;DHT22;9122;48.406;9.984;2023-06-10T15:05:48;26.50;56.50
17994;DHT22;9122;48.406;9.984;2023-06-10T15:08:32;26.50;56.60
17994;DHT22;9122;48.406;9.984;2023-06-10T15:11:17;26.40;56.50
17994;DHT22;9122;48.406;9.984;2023-06-10T15:14:01;26.40;56.60
17994;DHT22;9122;48.406;9.984;2023-06-10T15:16:46;26.40;57.60
17994;DHT22;9122;48.406;9.984;2023-06-10T15:19:30;26.40;57.10
17994;DHT22;9122;48.406;9.984;2023-06-10T15:22:15;26.40;56.90
17994;DHT22;9122;48.406;9.984;2023-06-10T15:25:00;26.40;56.60
17994;DHT22;9122;48.406;9.984;2023-06-10T15:27:44;26.40;56.00
17994;DHT22;9122;48.406;9.984;2023-06-10T15:30:29;26.40;55.20
17994;DHT22;9122;48.406;9.984;2023-06-10T15:33:13;26.40;55.10
17994;DHT22;9122;48.406;9.984;2023-06-10T15:35:58;26.30;55.00
17994;DHT22;9122;48.406;9.984;2023-06-10T15:38:43;26.30;55.50
17994;DHT22;9122;48.406;9.984;2023-06-10T15:41:27;26.30;55.30
17994;DHT22;9122;48.406;9.984;2023-06-10T15:44:12;26.30;55.30
17994;DHT22;9122;48.406;9.984;2023-06-10T15:46:56;26.20;55.40
17994;DHT22;9122;48.406;9.984;2023-06-10T15:49:40;26.30;55.20
17994;DHT22;9122;48.406;9.984;2023-06-10T15:52:25;26.20;54.70
17994;DHT22;9122;48.406;9.984;2023-06-10T15:55:10;26.20;54.50
17994;DHT22;9122;48.406;9.984;2023-06-10T15:57:54;26.20;54.90
17994;DHT22;9122;48.406;9.984;2023-06-10T16:00:38;26.20;54.90
17994;DHT22;9122;48.406;9.984;2023-06-10T16:03:23;26.20;55.20
17994;DHT22;9122;48.406;9.984;2023-06-10T16:06:07;26.10;55.30
17994;DHT22;9122;48.406;9.984;2023-06-10T16:08:51;26.10;55.50
17994;DHT22;9122;48.406;9.984;2023-06-10T16:11:36;26.10;55.70
17994;DHT22;9122;48.406;9.984;2023-06-10T16:14:20;26.10;55.90
17994;DHT22;9122;48.406;9.984;2023-06-10T16:17:05;26.10;56.10
17994;DHT22;9122;48.406;9.984;2023-06-10T16:19:49;26.00;56.20
17994;DHT22;9122;48.406;9.984;2023-06-10T16:22:34;26.00;56.40
17994;DHT22;9122;48.406;9.984;2023-06-10T16:25:19;26.00;56.40
17994;DHT22;9122;48.406;9.984;2023-06-10T16:28:03;26.10;56.30
17994;DHT22;9122;48.406;9.984;2023-06-10T16:30:48;26.10;56.40
17994;DHT22;9122;48.406;9.984;2023-06-10T16:33:32;26.00;56.50
17994;DHT22;9122;48.406;9.984;2023-06-10T16:36:17;26.00;56.00
17994;DHT22;9122;48.406;9.984;2023-06-10T16:39:02;26.10;55.90
17994;DHT22;9122;48.406;9.984;2023-06-10T16:41:46;26.10;56.10
17994;DHT22;9122;48.406;9.984;2023-06-10T16:44:30;26.10;56.40
17994;DHT22;9122;48.406;9.984;2023-06-10T16:47:15;26.10;56.50
17994;DHT22;9122;48.406;9.984;2023-06-10T16:50:00;26.00;56.80
17994;DHT22;9122;48.406;9.984;2023-06-10T16:52:44;26.00;57.00
17994;DHT22;9122;48.406;9.984;2023-06-10T16:55:28;26.10;56.40
17994;DHT22;9122;48.406;9.984;2023-06-10T16:58:12;26.00;55.60
17994;DHT22;9122;48.406;9.984;2023-06-10T17:01:03;26.00;55.50
17994;DHT22;9122;48.406;9.984;2023-06-10T17:03:48;26.00;55.60
17994;DHT22;9122;48.406;9.984;2023-06-10T17:06:32;26.00;55.80
17994;DHT22;9122;48.406;9.984;2023-06-10T17:09:16;26.00;55.80
17994;DHT22;9122;48.406;9.984;2023-06-10T17:12:01;25.90;55.90
17994;DHT22;9122;48.406;9.984;2023-06-10T17:14:45;26.00;55.90
17994;DHT22;9122;48.406;9.984;2023-06-10T17:17:30;26.00;55.50
17994;DHT22;9122;48.406;9.984;2023-06-10T17:20:15;26.00;55.30
17994;DHT22;9122;48.406;9.984;2023-06-10T17:22:59;26.00;55.60
17994;DHT22;9122;48.406;9.984;2023-06-10T17:25:44;26.00;55.80
17994;DHT22;9122;48.406;9.984;2023-06-10T17:28:29;25.90;56.00
17994;DHT22;9122;48.406;9.984;2023-06-10T17:31:13;25.90;56.60
17994;DHT22;9122;48.406;9.984;2023-06-10T17:33:57;25.90;57.30
17994;DHT22;9122;48.406;9.984;2023-06-10T17:36:42;25.90;57.90
17994;DHT22;9122;48.406;9.984;2023-06-10T17:39:27;25.90;58.30
17994;DHT22;9122;48.406;9.984;2023-06-10T17:42:11;25.80;58.40
17994;DHT22;9122;48.406;9.984;2023-06-10T17:45:01;25.80;58.40
17994;DHT22;9122;48.406;9.984;2023-06-10T17:47:45;25.80;58.40
17994;DHT22;9122;48.406;9.984;2023-06-10T17:50:30;25.80;58.60